createdAt,value
2023-04-10T00:00:58.803Z,19.90
2023-04-10T00:03:28.634Z,19.90
2023-04-10T00:05:57.406Z,19.90
2023-04-10T00:08:26.335Z,19.90
2023-04-10T00:10:56.106Z,19.90
2023-04-10T00:13:24.641Z,19.90
2023-04-10T00:15:52.844Z,19.90
2023-04-10T00:18:21.181Z,19.90
2023-04-10T00:20:50.908Z,19.80
2023-04-10T00:23:19.160Z,19.90
2023-04-10T00:25:49.062Z,19.80
2023-04-10T00:28:17.394Z,19.90
2023-04-10T00:30:45.862Z,19.90
2023-04-10T00:33:14.159Z,19.90
2023-04-10T00:35:42.486Z,19.90
2023-04-10T00:38:12.200Z,19.90
2023-04-10T00:40:40.810Z,19.80
2023-04-10T00:43:09.041Z,19.80
2023-04-10T00:45:37.435Z,19.90
2023-04-10T00:48:06.508Z,19.80
2023-04-10T00:50:34.806Z,19.80
2023-04-10T00:53:04.098Z,19.80
2023-04-10T00:55:33.730Z,19.80
2023-04-10T00:58:02.039Z,19.80
2023-04-10T01:00:30.980Z,19.80
2023-04-10T01:03:00.730Z,19.80
2023-04-10T01:05:36.218Z,19.70
2023-04-10T01:08:10.571Z,19.80
2023-04-10T01:10:47.835Z,19.80
2023-04-10T01:13:23.033Z,19.70
2023-04-10T01:15:59.188Z,19.80
2023-04-10T01:18:32.728Z,19.80
2023-04-10T01:21:04.020Z,19.70
2023-04-10T01:24:25.969Z,19.80
2023-04-10T01:27:10.090Z,19.70
2023-04-10T01:29:44.797Z,19.70
2023-04-10T01:32:18.064Z,19.70
2023-04-10T01:34:50.991Z,19.70
2023-04-10T01:37:24.584Z,19.70
2023-04-10T01:40:01.999Z,19.70
2023-04-10T01:42:33.591Z,19.70
2023-04-10T01:45:04.895Z,19.70
2023-04-10T01:47:34.205Z,19.70
2023-04-10T01:50:04.545Z,19.70
2023-04-10T01:52:34.237Z,19.70
2023-04-10T01:55:18.751Z,19.70
2023-04-10T01:57:53.537Z,19.70
2023-04-10T02:00:23.959Z,19.70
2023-04-10T02:02:53.468Z,19.70
2023-04-10T02:05:23.158Z,19.70
2023-04-10T02:07:57.973Z,19.70
2023-04-10T02:10:31.679Z,19.70
2023-04-10T02:13:06.580Z,19.70
2023-04-10T02:15:37.777Z,19.70
2023-04-10T02:18:08.155Z,19.70
2023-04-10T02:20:37.415Z,19.70
2023-04-10T02:23:06.677Z,19.70
2023-04-10T02:25:35.700Z,19.60
2023-04-10T02:28:06.128Z,19.70
2023-04-10T02:30:36.619Z,19.60
2023-04-10T02:33:05.180Z,19.70
2023-04-10T02:35:34.316Z,19.60
2023-04-10T02:38:04.636Z,19.60
2023-04-10T02:40:38.637Z,19.60
2023-04-10T02:43:13.218Z,19.60
2023-04-10T02:45:43.854Z,19.60
2023-04-10T02:48:15.444Z,19.60
2023-04-10T02:50:46.258Z,19.60
2023-04-10T02:53:15.090Z,19.60
2023-04-10T02:55:43.426Z,19.60
2023-04-10T02:58:13.174Z,19.60
2023-04-10T03:00:49.732Z,19.60
2023-04-10T03:03:24.663Z,19.60
2023-04-10T03:05:55.868Z,19.60
2023-04-10T03:08:30.392Z,19.50
2023-04-10T03:10:58.761Z,19.60
2023-04-10T03:13:27.118Z,19.60
2023-04-10T03:15:56.797Z,19.50
2023-04-10T03:18:25.424Z,19.60
2023-04-10T03:20:55.908Z,19.60
2023-04-10T03:23:24.252Z,19.50
2023-04-10T03:25:53.959Z,19.50
2023-04-10T03:28:25.439Z,19.50
2023-04-10T03:30:53.784Z,19.50
2023-04-10T03:33:23.492Z,19.50
2023-04-10T03:35:51.987Z,19.50
2023-04-10T03:38:20.462Z,19.50
2023-04-10T03:40:48.721Z,19.50
2023-04-10T03:43:20.081Z,19.50
2023-04-10T03:45:49.210Z,19.50
2023-04-10T03:48:18.831Z,19.50
2023-04-10T03:50:50.159Z,19.50
2023-04-10T03:53:18.476Z,19.50
2023-04-10T03:55:47.032Z,19.50
2023-04-10T03:58:15.356Z,19.50
2023-04-10T04:00:43.683Z,19.50
2023-04-10T04:03:23.964Z,19.50
2023-04-10T04:06:08.408Z,19.50
2023-04-10T04:08:43.692Z,19.50
2023-04-10T04:11:17.558Z,19.50
2023-04-10T04:14:01.169Z,19.50
2023-04-10T04:16:45.869Z,19.50
2023-04-10T04:19:31.819Z,19.50
2023-04-10T04:22:10.330Z,19.40
2023-04-10T04:25:08.795Z,19.50
2023-04-10T04:27:55.624Z,19.50
2023-04-10T04:30:35.069Z,19.50
2023-04-10T04:33:29.513Z,19.50
2023-04-10T04:36:01.119Z,19.50
2023-04-10T04:38:39.857Z,19.40
2023-04-10T04:41:24.882Z,19.50
2023-04-10T04:44:28.265Z,19.50
2023-04-10T04:47:05.041Z,19.50
2023-04-10T04:49:51.710Z,19.40
2023-04-10T04:52:38.539Z,19.50
2023-04-10T04:55:28.400Z,19.50
2023-04-10T04:58:05.002Z,19.50
2023-04-10T05:00:46.289Z,19.40
2023-04-10T05:03:33.144Z,19.40
2023-04-10T05:06:15.508Z,19.50
2023-04-10T05:09:02.629Z,19.50
2023-04-10T05:11:50.558Z,19.50
2023-04-10T05:14:41.758Z,19.50
2023-04-10T05:17:28.487Z,19.50
2023-04-10T05:20:06.796Z,19.50
2023-04-10T05:22:58.266Z,19.50
2023-04-10T05:25:52.585Z,19.60
2023-04-10T05:28:33.450Z,19.60
2023-04-10T05:31:27.127Z,19.60
2023-04-10T05:34:10.009Z,19.60
2023-04-10T05:37:12.911Z,19.70
2023-04-10T05:40:09.112Z,19.70
2023-04-10T05:43:03.653Z,19.70
2023-04-10T05:45:40.671Z,19.70
2023-04-10T05:48:28.829Z,19.70
2023-04-10T05:51:17.508Z,19.70
2023-04-10T05:54:08.569Z,19.80
2023-04-10T05:56:49.742Z,19.80
2023-04-10T05:59:36.763Z,19.80
2023-04-10T06:02:21.943Z,19.90
2023-04-10T06:04:50.866Z,19.80
2023-04-10T06:07:19.193Z,19.90
2023-04-10T06:09:47.423Z,19.90
2023-04-10T06:12:15.689Z,19.90
2023-04-10T06:14:44.847Z,19.90
2023-04-10T06:17:13.671Z,19.90
2023-04-10T06:19:44.019Z,19.90
2023-04-10T06:22:12.397Z,19.90
2023-04-10T06:24:40.629Z,20.00
2023-04-10T06:27:09.017Z,20.00
2023-04-10T06:29:37.384Z,20.00
2023-04-10T06:32:06.346Z,20.00
2023-04-10T06:34:38.346Z,20.00
2023-04-10T06:37:10.432Z,20.00
2023-04-10T06:39:39.319Z,20.10
2023-04-10T06:42:08.145Z,20.10
2023-04-10T06:44:45.508Z,20.10
2023-04-10T06:47:13.838Z,20.10
2023-04-10T06:49:42.161Z,20.10
2023-04-10T06:52:11.871Z,20.10
2023-04-10T06:54:40.126Z,20.10
2023-04-10T06:57:08.561Z,20.10
2023-04-10T06:59:36.903Z,20.10
2023-04-10T07:02:05.566Z,20.10
2023-04-10T07:04:33.887Z,20.20
2023-04-10T07:07:02.171Z,20.20
2023-04-10T07:09:32.063Z,20.20
2023-04-10T07:12:00.490Z,20.20
2023-04-10T07:14:28.754Z,20.20
2023-04-10T07:16:57.035Z,20.20
2023-04-10T07:19:25.748Z,20.30
2023-04-10T07:21:54.066Z,20.30
2023-04-10T07:24:22.594Z,20.30
2023-04-10T07:26:52.291Z,20.30
2023-04-10T07:29:21.606Z,20.30
2023-04-10T07:31:49.917Z,20.30
2023-04-10T07:34:18.898Z,20.40
2023-04-10T07:36:47.178Z,20.40
2023-04-10T07:39:15.492Z,20.40
2023-04-10T07:41:44.058Z,20.40
2023-04-10T07:44:14.589Z,20.40
2023-04-10T07:46:43.073Z,20.40
2023-04-10T07:49:12.021Z,20.50
2023-04-10T07:51:40.340Z,20.50
2023-04-10T07:54:08.639Z,20.50
2023-04-10T07:56:37.010Z,20.50
2023-04-10T07:59:05.337Z,20.50
2023-04-10T08:01:35.039Z,20.50
2023-04-10T08:04:05.491Z,20.50
2023-04-10T08:06:34.582Z,20.50
2023-04-10T08:09:02.863Z,20.50
2023-04-10T08:11:32.463Z,20.50
2023-04-10T08:14:03.111Z,20.60
2023-04-10T08:16:32.775Z,20.60
2023-04-10T08:19:02.885Z,20.60
2023-04-10T08:21:32.266Z,20.60
2023-04-10T08:24:02.100Z,20.60
2023-04-10T08:26:30.665Z,20.60
2023-04-10T08:29:00.925Z,20.60
2023-04-10T08:31:30.233Z,20.70
2023-04-10T08:33:59.168Z,20.70
2023-04-10T08:36:29.701Z,20.70
2023-04-10T08:38:58.002Z,20.70
2023-04-10T08:41:26.937Z,20.70
2023-04-10T08:43:55.594Z,20.70
2023-04-10T08:46:26.199Z,20.70
2023-04-10T08:48:59.931Z,20.80
2023-04-10T08:51:35.057Z,20.80
2023-04-10T08:54:08.014Z,20.80
2023-04-10T08:56:38.917Z,20.80
2023-04-10T08:59:08.829Z,20.80
2023-04-10T09:01:37.259Z,20.80
2023-04-10T09:04:06.549Z,20.80
2023-04-10T09:06:36.403Z,20.80
2023-04-10T09:09:04.801Z,20.80
2023-04-10T09:12:00.406Z,20.80
2023-04-10T09:14:30.643Z,20.90
2023-04-10T09:17:18.263Z,20.90
2023-04-10T09:19:47.528Z,20.90
2023-04-10T09:22:17.870Z,20.90
2023-04-10T09:24:48.012Z,20.90
2023-04-10T09:27:31.345Z,20.90
2023-04-10T09:30:00.403Z,20.90
2023-04-10T09:32:40.447Z,20.90
2023-04-10T09:35:09.724Z,20.90
2023-04-10T09:37:41.687Z,20.90
2023-04-10T09:40:21.971Z,20.90
2023-04-10T09:42:50.403Z,20.90
2023-04-10T09:45:20.657Z,20.90
2023-04-10T09:48:04.448Z,20.90
2023-04-10T09:50:39.623Z,20.90
2023-04-10T09:53:12.296Z,20.90
2023-04-10T09:55:41.523Z,20.90
2023-04-10T09:58:11.098Z,21.00
2023-04-10T10:00:43.939Z,20.90
2023-04-10T10:03:13.687Z,20.90
2023-04-10T10:05:44.205Z,21.00
2023-04-10T10:08:15.917Z,21.00
2023-04-10T10:10:48.048Z,21.00
2023-04-10T10:13:19.091Z,21.00
2023-04-10T10:15:53.160Z,21.00
2023-04-10T10:18:28.397Z,21.00
2023-04-10T10:20:57.425Z,21.00
2023-04-10T10:23:28.105Z,21.00
2023-04-10T10:25:57.314Z,21.00
2023-04-10T10:28:27.086Z,21.00
2023-04-10T10:30:56.354Z,21.00
2023-04-10T10:33:27.395Z,21.00
2023-04-10T10:35:59.245Z,21.10
2023-04-10T10:38:29.478Z,21.10
2023-04-10T10:41:02.875Z,21.10
2023-04-10T10:43:43.460Z,21.10
2023-04-10T10:46:17.238Z,21.10
2023-04-10T10:48:57.631Z,21.10
2023-04-10T10:51:43.316Z,21.10
2023-04-10T10:54:30.976Z,21.20
2023-04-10T10:56:59.717Z,21.20
2023-04-10T10:59:55.692Z,21.20
2023-04-10T11:02:24.970Z,21.20
2023-04-10T11:04:53.510Z,21.20
2023-04-10T11:07:21.715Z,21.20
2023-04-10T11:09:53.359Z,21.30
2023-04-10T11:12:23.654Z,21.30
2023-04-10T11:14:59.941Z,21.30
2023-04-10T11:17:49.881Z,21.30
2023-04-10T11:20:20.877Z,21.40
2023-04-10T11:23:10.008Z,21.40
2023-04-10T11:25:50.386Z,21.40
2023-04-10T11:28:38.309Z,21.40
2023-04-10T11:31:18.623Z,21.30
2023-04-10T11:33:47.826Z,21.30
2023-04-10T11:36:18.145Z,21.30
2023-04-10T11:38:59.539Z,21.30
2023-04-10T11:41:30.901Z,21.30
2023-04-10T11:44:00.473Z,21.30
2023-04-10T11:46:29.306Z,21.30
2023-04-10T11:49:00.078Z,21.30
2023-04-10T11:51:28.878Z,21.30
2023-04-10T11:54:09.353Z,21.30
2023-04-10T11:56:40.974Z,21.30
2023-04-10T11:59:11.231Z,21.30
2023-04-10T12:01:43.042Z,21.30
2023-04-10T12:04:19.056Z,21.30
2023-04-10T12:06:48.421Z,21.30
2023-04-10T12:09:18.458Z,21.30
2023-04-10T12:11:56.109Z,21.30
2023-04-10T12:14:30.693Z,21.30
2023-04-10T12:16:59.275Z,21.30
2023-04-10T12:19:28.382Z,21.30
2023-04-10T12:21:58.150Z,21.30
2023-04-10T12:24:46.819Z,21.30
2023-04-10T12:27:20.385Z,21.30
2023-04-10T12:29:50.046Z,21.30
2023-04-10T12:32:19.035Z,21.30
2023-04-10T12:34:52.605Z,21.30
2023-04-10T12:37:21.289Z,21.30
2023-04-10T12:39:49.936Z,21.30
2023-04-10T12:42:22.629Z,21.30
2023-04-10T12:44:55.699Z,21.30
2023-04-10T12:47:24.745Z,21.30
2023-04-10T12:50:07.601Z,21.30
2023-04-10T12:52:36.388Z,21.40
2023-04-10T12:55:12.556Z,21.40
2023-04-10T12:57:42.959Z,21.40
2023-04-10T13:00:13.212Z,21.40
2023-04-10T13:02:42.379Z,21.40
2023-04-10T13:05:11.424Z,21.40
2023-04-10T13:07:40.289Z,21.50
2023-04-10T13:10:09.770Z,21.50
2023-04-10T13:12:39.070Z,21.50
2023-04-10T13:15:10.810Z,21.50
2023-04-10T13:17:40.905Z,21.50
2023-04-10T13:20:11.145Z,21.60
2023-04-10T13:22:39.903Z,21.60
2023-04-10T13:25:08.737Z,21.60
2023-04-10T13:27:37.005Z,21.60
2023-04-10T13:30:05.790Z,21.60
2023-04-10T13:32:35.608Z,21.60
2023-04-10T13:35:03.900Z,21.70
2023-04-10T13:37:34.947Z,21.70
2023-04-10T13:40:03.283Z,21.70
2023-04-10T13:42:31.485Z,21.70
2023-04-10T13:44:59.774Z,21.70
2023-04-10T13:47:28.269Z,21.70
2023-04-10T13:49:57.884Z,21.70
2023-04-10T13:52:26.239Z,21.70
2023-04-10T13:54:54.443Z,21.70
2023-04-10T13:57:22.793Z,21.70
2023-04-10T13:59:51.079Z,21.70
2023-04-10T14:02:19.555Z,21.70
2023-04-10T14:04:47.955Z,21.80
2023-04-10T14:07:17.582Z,21.80
2023-04-10T14:09:47.089Z,21.80
2023-04-10T14:12:16.789Z,21.80
2023-04-10T14:14:45.516Z,21.80
2023-04-10T14:17:13.898Z,21.80
2023-04-10T14:19:43.446Z,21.80
2023-04-10T14:22:11.756Z,21.80
2023-04-10T14:24:41.455Z,21.80
2023-04-10T14:27:11.528Z,21.80
2023-04-10T14:29:47.622Z,21.80
2023-04-10T14:32:22.740Z,21.80
2023-04-10T14:34:51.056Z,21.80
2023-04-10T14:37:19.783Z,21.80
2023-04-10T14:39:49.476Z,21.80
2023-04-10T14:42:17.752Z,21.80
2023-04-10T14:44:45.991Z,21.80
2023-04-10T14:47:14.320Z,21.80
2023-04-10T14:49:42.673Z,21.80
2023-04-10T14:52:11.129Z,21.80
2023-04-10T14:54:39.593Z,21.80
2023-04-10T14:57:09.834Z,21.90
2023-04-10T14:59:38.223Z,21.90
2023-04-10T15:02:06.529Z,21.90
2023-04-10T15:04:34.876Z,21.90
2023-04-10T15:07:03.148Z,21.90
2023-04-10T15:09:31.554Z,21.90
2023-04-10T15:11:59.874Z,21.90
2023-04-10T15:14:29.487Z,21.90
2023-04-10T15:16:57.818Z,21.90
2023-04-10T15:19:26.788Z,21.90
2023-04-10T15:21:56.152Z,21.90
2023-04-10T15:24:24.552Z,21.90
2023-04-10T15:26:53.560Z,21.80
2023-04-10T15:29:21.936Z,21.90
2023-04-10T15:31:51.985Z,21.90
2023-04-10T15:34:20.291Z,21.90
2023-04-10T15:36:48.814Z,21.90
2023-04-10T15:39:17.128Z,21.80
2023-04-10T15:41:45.377Z,21.90
2023-04-10T15:44:13.640Z,21.90
2023-04-10T15:46:41.999Z,21.90
2023-04-10T15:49:11.682Z,21.90
2023-04-10T15:51:40.090Z,21.90
2023-04-10T15:54:09.146Z,21.90
2023-04-10T15:56:37.467Z,21.90
2023-04-10T15:59:05.781Z,21.90
2023-04-10T16:01:37.094Z,21.80
2023-04-10T16:04:05.660Z,21.90
2023-04-10T16:06:35.384Z,21.80
2023-04-10T16:09:07.902Z,21.80
2023-04-10T16:11:46.901Z,21.80
2023-04-10T16:14:15.179Z,21.80
2023-04-10T16:16:43.486Z,21.80
2023-04-10T16:19:11.848Z,21.80
2023-04-10T16:21:42.711Z,21.80
2023-04-10T16:24:10.972Z,21.80
2023-04-10T16:26:39.237Z,21.80
2023-04-10T16:29:07.643Z,21.80
2023-04-10T16:31:35.950Z,21.80
2023-04-10T16:34:04.229Z,21.80
2023-04-10T16:36:32.573Z,21.70
2023-04-10T16:39:02.224Z,21.70
2023-04-10T16:41:30.522Z,21.70
2023-04-10T16:43:58.857Z,21.70
2023-04-10T16:46:27.271Z,21.70
2023-04-10T16:48:55.698Z,21.70
2023-04-10T16:51:24.524Z,21.70
2023-04-10T16:53:52.907Z,21.70
2023-04-10T16:56:22.634Z,21.70
2023-04-10T16:58:50.920Z,21.70
2023-04-10T17:01:20.327Z,21.70
2023-04-10T17:03:49.458Z,21.60
2023-04-10T17:06:19.219Z,21.60
2023-04-10T17:08:48.171Z,21.60
2023-04-10T17:11:16.930Z,21.60
2023-04-10T17:13:47.492Z,21.60
2023-04-10T17:16:15.928Z,21.60
2023-04-10T17:18:44.445Z,21.60
2023-04-10T17:21:13.193Z,21.60
2023-04-10T17:23:41.950Z,21.60
2023-04-10T17:26:14.471Z,21.60
2023-04-10T17:28:44.834Z,21.50
2023-04-10T17:31:15.014Z,21.50
2023-04-10T17:33:43.559Z,21.50
2023-04-10T17:36:13.078Z,21.50
2023-04-10T17:38:42.446Z,21.50
2023-04-10T17:41:11.390Z,21.50
2023-04-10T17:43:40.271Z,21.50
2023-04-10T17:46:08.642Z,21.50
2023-04-10T17:48:39.064Z,21.40
2023-04-10T17:51:08.140Z,21.40
2023-04-10T17:53:36.945Z,21.40
2023-04-10T17:56:05.854Z,21.40
2023-04-10T17:58:34.240Z,21.40
2023-04-10T18:01:02.640Z,21.40
2023-04-10T18:03:31.058Z,21.30
2023-04-10T18:06:00.784Z,21.30
2023-04-10T18:08:29.141Z,21.30
2023-04-10T18:10:58.148Z,21.30
2023-04-10T18:13:26.483Z,21.30
2023-04-10T18:15:54.740Z,21.30
2023-04-10T18:18:23.085Z,21.30
2023-04-10T18:20:51.353Z,21.30
2023-04-10T18:23:21.039Z,21.30
2023-04-10T18:25:54.192Z,21.30
2023-04-10T18:28:23.054Z,21.30
2023-04-10T18:30:53.908Z,21.20
2023-04-10T18:33:24.121Z,21.20
2023-04-10T18:35:52.736Z,21.20
2023-04-10T18:38:22.689Z,21.20
2023-04-10T18:40:50.948Z,21.20
2023-04-10T18:43:19.223Z,21.20
2023-04-10T18:45:47.563Z,21.20
2023-04-10T18:48:15.880Z,21.20
2023-04-10T18:50:44.190Z,21.20
2023-04-10T18:53:12.568Z,21.20
2023-04-10T18:55:42.229Z,21.20
2023-04-10T18:58:10.592Z,21.20
2023-04-10T19:00:38.846Z,21.20
2023-04-10T19:03:07.438Z,21.20
2023-04-10T19:05:35.830Z,21.10
2023-04-10T19:08:04.979Z,21.10
2023-04-10T19:10:33.779Z,21.10
2023-04-10T19:13:03.846Z,21.10
2023-04-10T19:15:32.275Z,21.10
2023-04-10T19:18:00.614Z,21.10
2023-04-10T19:20:48.702Z,21.10
2023-04-10T19:23:17.134Z,21.10
2023-04-10T19:25:45.548Z,21.10
2023-04-10T19:28:15.502Z,21.10
2023-04-10T19:30:43.846Z,21.10
2023-04-10T19:33:12.084Z,21.10
2023-04-10T19:35:40.365Z,21.10
2023-04-10T19:38:08.751Z,21.10
2023-04-10T19:40:37.494Z,21.10
2023-04-10T19:43:05.865Z,21.10
2023-04-10T19:45:37.479Z,21.10
2023-04-10T19:48:07.136Z,21.10
2023-04-10T19:50:35.523Z,21.00
2023-04-10T19:53:03.845Z,21.10
2023-04-10T19:55:32.477Z,21.10
2023-04-10T19:58:00.815Z,21.00
2023-04-10T20:00:29.093Z,21.00
2023-04-10T20:02:59.092Z,21.10
2023-04-10T20:05:27.740Z,21.00
2023-04-10T20:07:56.010Z,21.00
2023-04-10T20:10:24.421Z,21.00
2023-04-10T20:12:52.703Z,21.00
2023-04-10T20:15:21.532Z,21.00
2023-04-10T20:17:49.984Z,21.00
2023-04-10T20:20:19.670Z,21.00
2023-04-10T20:22:48.585Z,21.00
2023-04-10T20:25:16.954Z,21.00
2023-04-10T20:27:45.200Z,21.00
2023-04-10T20:30:13.642Z,21.00
2023-04-10T20:32:41.905Z,21.00
2023-04-10T20:35:11.086Z,21.00
2023-04-10T20:37:40.811Z,21.00
2023-04-10T20:40:10.426Z,21.00
2023-04-10T20:42:38.646Z,21.00
2023-04-10T20:45:07.944Z,21.00
2023-04-10T20:47:36.340Z,21.00
2023-04-10T20:50:04.878Z,20.90
2023-04-10T20:52:33.185Z,20.90
2023-04-10T20:55:02.927Z,20.90
2023-04-10T20:57:31.370Z,20.90
2023-04-10T20:59:59.646Z,20.90
2023-04-10T21:02:28.203Z,20.90
2023-04-10T21:04:56.742Z,20.90
2023-04-10T21:07:25.118Z,20.90
2023-04-10T21:09:53.439Z,20.90
2023-04-10T21:12:23.442Z,20.90
2023-04-10T21:14:51.776Z,20.90
2023-04-10T21:17:20.437Z,20.90
2023-04-10T21:19:48.830Z,20.90
2023-04-10T21:22:17.134Z,20.90
2023-04-10T21:24:45.423Z,20.90
2023-04-10T21:27:13.815Z,20.90
2023-04-10T21:29:43.512Z,20.90
2023-04-10T21:32:11.939Z,20.90
2023-04-10T21:34:40.335Z,20.90
2023-04-10T21:37:08.631Z,20.90
2023-04-10T21:39:36.968Z,20.90
2023-04-10T21:42:05.794Z,20.90
2023-04-10T21:44:34.104Z,20.90
2023-04-10T21:47:04.466Z,20.90
2023-04-10T21:49:32.758Z,20.80
2023-04-10T21:52:00.978Z,20.80
2023-04-10T21:54:30.209Z,20.80
2023-04-10T21:56:58.542Z,20.80
2023-04-10T21:59:26.862Z,20.80
2023-04-10T22:01:55.209Z,20.80
2023-04-10T22:04:25.248Z,20.80
2023-04-10T22:06:53.621Z,20.80
2023-04-10T22:09:22.902Z,20.80
2023-04-10T22:11:51.247Z,20.80
2023-04-10T22:14:21.257Z,20.80
2023-04-10T22:16:49.753Z,20.80
2023-04-10T22:19:18.075Z,20.80
2023-04-10T22:21:47.674Z,20.80
2023-04-10T22:24:16.003Z,20.80
2023-04-10T22:26:46.074Z,20.80
2023-04-10T22:29:14.926Z,20.80
2023-04-10T22:31:44.418Z,20.80
2023-04-10T22:34:12.905Z,20.80
2023-04-10T22:36:41.581Z,20.80
2023-04-10T22:39:11.341Z,20.80
2023-04-10T22:41:39.632Z,20.70
2023-04-10T22:44:08.332Z,20.80
2023-04-10T22:46:36.976Z,20.80
2023-04-10T22:49:05.477Z,20.70
2023-04-10T22:51:33.900Z,20.70
2023-04-10T22:54:02.175Z,20.70
2023-04-10T22:56:31.933Z,20.80
2023-04-10T22:59:00.272Z,20.70
2023-04-10T23:01:28.837Z,20.70
2023-04-10T23:03:57.262Z,20.70
2023-04-10T23:06:25.735Z,20.70
2023-04-10T23:08:54.499Z,20.70
2023-04-10T23:11:23.214Z,20.70
2023-04-10T23:13:52.948Z,20.70
2023-04-10T23:16:21.887Z,20.70
2023-04-10T23:18:51.092Z,20.70
2023-04-10T23:21:19.694Z,20.70
2023-04-10T23:23:48.087Z,20.70
2023-04-10T23:26:16.398Z,20.70
2023-04-10T23:28:44.642Z,20.70
2023-04-10T23:31:14.569Z,20.70
2023-04-10T23:33:43.122Z,20.70
2023-04-10T23:36:11.648Z,20.70
2023-04-10T23:38:39.891Z,20.70
2023-04-10T23:41:08.705Z,20.70
2023-04-10T23:43:36.953Z,20.70
2023-04-10T23:46:05.413Z,20.70
2023-04-10T23:48:35.154Z,20.70
2023-04-10T23:51:07.127Z,20.70
2023-04-10T23:53:35.936Z,20.60
2023-04-10T23:56:04.260Z,20.60
2023-04-10T23:58:32.691Z,20.60
